createdAt,value
2023-04-07T00:01:40.356Z,94577.47
2023-04-07T00:04:07.412Z,94581.44
2023-04-07T00:06:34.478Z,94572.25
2023-04-07T00:09:01.781Z,94566.19
2023-04-07T00:11:28.622Z,94572.25
2023-04-07T00:13:55.764Z,94555.63
2023-04-07T00:16:23.266Z,94569.66
2023-04-07T00:18:50.167Z,94568.56
2023-04-07T00:21:17.021Z,94570.06
2023-04-07T00:23:43.983Z,94565.78
2023-04-07T00:26:10.939Z,94559.75
2023-04-07T00:28:38.023Z,94550.13
2023-04-07T00:31:04.984Z,94539.97
2023-04-07T00:33:31.996Z,94546.84
2023-04-07T00:35:58.974Z,94536.00
2023-04-07T00:38:26.061Z,94539.28
2023-04-07T00:41:01.497Z,94536.41
2023-04-07T00:43:28.523Z,94527.75
2023-04-07T00:45:56.202Z,94518.00
2023-04-07T00:48:23.377Z,94517.00
2023-04-07T00:50:50.576Z,94526.22
2023-04-07T00:53:17.926Z,94518.59
2023-04-07T00:55:44.884Z,94516.81
2023-04-07T00:58:11.969Z,94508.44
2023-04-07T01:00:46.940Z,94498.66
2023-04-07T01:03:22.534Z,94506.50
2023-04-07T01:06:01.964Z,94500.19
2023-04-07T01:08:46.821Z,94506.22
2023-04-07T01:11:23.975Z,94497.72
2023-04-07T01:13:53.250Z,94484.66
2023-04-07T01:16:35.985Z,94494.97
2023-04-07T01:19:23.724Z,94482.34
2023-04-07T01:21:54.120Z,94478.78
2023-04-07T01:24:45.169Z,94480.13
2023-04-07T01:27:42.940Z,94463.66
2023-04-07T01:30:13.350Z,94470.63
2023-04-07T01:32:42.016Z,94460.09
2023-04-07T01:35:13.659Z,94461.66
2023-04-07T01:37:41.840Z,94461.94
2023-04-07T01:40:09.702Z,94461.25
2023-04-07T01:42:38.819Z,94460.81
2023-04-07T01:45:07.482Z,94464.53
2023-04-07T01:47:37.756Z,94457.16
2023-04-07T01:50:06.673Z,94460.56
2023-04-07T01:52:36.455Z,94454.13
2023-04-07T01:55:05.878Z,94463.19
2023-04-07T01:57:33.161Z,94459.22
2023-04-07T02:00:00.231Z,94459.88
2023-04-07T02:02:27.892Z,94457.72
2023-04-07T02:05:05.879Z,94449.47
2023-04-07T02:07:43.207Z,94448.41
2023-04-07T02:10:13.996Z,94454.72
2023-04-07T02:12:42.038Z,94449.13
2023-04-07T02:15:11.455Z,94450.06
2023-04-07T02:17:42.759Z,94443.19
2023-04-07T02:20:12.668Z,94444.03
2023-04-07T02:22:40.242Z,94436.56
2023-04-07T02:25:30.227Z,94439.59
2023-04-07T02:27:59.634Z,94432.16
2023-04-07T02:30:27.794Z,94433.59
2023-04-07T02:32:54.763Z,94426.13
2023-04-07T02:35:21.849Z,94419.56
2023-04-07T02:37:49.027Z,94414.34
2023-04-07T02:40:16.602Z,94413.56
2023-04-07T02:42:44.197Z,94399.44
2023-04-07T02:45:11.945Z,94421.13
2023-04-07T02:47:40.045Z,94415.06
2023-04-07T02:50:07.691Z,94413.16
2023-04-07T02:52:34.648Z,94422.34
2023-04-07T02:55:01.953Z,94413.47
2023-04-07T02:57:28.787Z,94414.69
2023-04-07T02:59:58.236Z,94408.91
2023-04-07T03:02:25.363Z,94394.78
2023-04-07T03:04:53.340Z,94407.81
2023-04-07T03:07:20.439Z,94402.88
2023-04-07T03:09:47.350Z,94403.03
2023-04-07T03:12:14.224Z,94397.69
2023-04-07T03:14:41.024Z,94397.38
2023-04-07T03:17:08.291Z,94400.41
2023-04-07T03:19:35.251Z,94382.75
2023-04-07T03:22:02.108Z,94396.84
2023-04-07T03:24:29.074Z,94377.66
2023-04-07T03:26:56.288Z,94386.97
2023-04-07T03:29:23.227Z,94383.69
2023-04-07T03:31:50.145Z,94381.94
2023-04-07T03:34:17.013Z,94387.94
2023-04-07T03:36:43.881Z,94381.38
2023-04-07T03:39:10.713Z,94365.63
2023-04-07T03:41:37.791Z,94363.84
2023-04-07T03:44:04.603Z,94376.47
2023-04-07T03:46:31.580Z,94370.63
2023-04-07T03:48:58.503Z,94365.00
2023-04-07T03:51:25.326Z,94368.84
2023-04-07T03:53:52.286Z,94361.59
2023-04-07T03:56:19.350Z,94352.22
2023-04-07T03:58:46.838Z,94346.19
2023-04-07T04:01:13.817Z,94350.16
2023-04-07T04:03:40.810Z,94350.81
2023-04-07T04:06:07.830Z,94352.59
2023-04-07T04:08:34.725Z,94349.44
2023-04-07T04:11:01.934Z,94351.38
2023-04-07T04:13:28.784Z,94348.91
2023-04-07T04:15:55.606Z,94342.59
2023-04-07T04:18:22.431Z,94347.44
2023-04-07T04:20:49.320Z,94352.22
2023-04-07T04:23:16.504Z,94345.09
2023-04-07T04:25:43.342Z,94338.38
2023-04-07T04:28:10.179Z,94339.78
2023-04-07T04:30:37.018Z,94340.19
2023-04-07T04:33:03.961Z,94345.66
2023-04-07T04:35:30.810Z,94342.38
2023-04-07T04:37:57.669Z,94353.75
2023-04-07T04:40:24.602Z,94342.66
2023-04-07T04:42:51.564Z,94335.53
2023-04-07T04:45:18.608Z,94340.19
2023-04-07T04:47:45.875Z,94334.00
2023-04-07T04:50:13.227Z,94346.63
2023-04-07T04:52:40.745Z,94341.41
2023-04-07T04:55:08.588Z,94335.78
2023-04-07T04:57:36.368Z,94332.75
2023-04-07T05:00:04.624Z,94334.66
2023-04-07T05:02:31.676Z,94333.72
2023-04-07T05:04:58.825Z,94335.78
2023-04-07T05:07:26.294Z,94338.81
2023-04-07T05:09:53.141Z,94332.19
2023-04-07T05:12:19.976Z,94333.03
2023-04-07T05:14:46.794Z,94318.66
2023-04-07T05:17:13.658Z,94321.78
2023-04-07T05:19:40.973Z,94320.28
2023-04-07T05:22:07.798Z,94333.31
2023-04-07T05:24:34.736Z,94327.56
2023-04-07T05:27:02.080Z,94320.03
2023-04-07T05:29:28.926Z,94331.41
2023-04-07T05:31:55.863Z,94315.25
2023-04-07T05:34:22.813Z,94320.16
2023-04-07T05:36:49.626Z,94311.41
2023-04-07T05:39:16.585Z,94325.34
2023-04-07T05:41:43.497Z,94331.28
2023-04-07T05:44:10.509Z,94335.53
2023-04-07T05:46:37.318Z,94340.56
2023-04-07T05:49:18.384Z,94336.88
2023-04-07T05:51:47.646Z,94325.50
2023-04-07T05:54:15.828Z,94326.75
2023-04-07T05:56:42.716Z,94355.25
2023-04-07T05:59:10.174Z,94346.19
2023-04-07T06:01:37.014Z,94342.59
2023-04-07T06:04:04.449Z,94350.53
2023-04-07T06:06:31.540Z,94359.72
2023-04-07T06:08:58.423Z,94346.97
2023-04-07T06:11:27.423Z,94351.75
2023-04-07T06:13:54.367Z,94350.78
2023-04-07T06:16:21.408Z,94342.50
2023-04-07T06:18:48.241Z,94342.94
2023-04-07T06:21:15.796Z,94344.25
2023-04-07T06:23:42.758Z,94335.00
2023-04-07T06:26:12.324Z,94341.16
2023-04-07T06:28:39.838Z,94346.22
2023-04-07T06:31:08.964Z,94329.44
2023-04-07T06:33:36.306Z,94337.09
2023-04-07T06:36:03.271Z,94334.94
2023-04-07T06:38:30.167Z,94334.16
2023-04-07T06:40:56.969Z,94330.03
2023-04-07T06:43:23.957Z,94333.38
2023-04-07T06:45:50.943Z,94324.25
2023-04-07T06:48:17.762Z,94320.59
2023-04-07T06:50:49.862Z,94324.94
2023-04-07T06:53:16.741Z,94322.66
2023-04-07T06:55:43.826Z,94322.78
2023-04-07T06:58:10.687Z,94322.50
2023-04-07T07:00:37.537Z,94328.78
2023-04-07T07:03:04.540Z,94332.28
2023-04-07T07:05:31.793Z,94313.63
2023-04-07T07:07:58.647Z,94324.72
2023-04-07T07:10:25.494Z,94329.28
2023-04-07T07:12:52.549Z,94330.66
2023-04-07T07:15:19.419Z,94323.34
2023-04-07T07:17:46.541Z,94322.25
2023-04-07T07:20:13.489Z,94324.25
2023-04-07T07:22:40.315Z,94326.91
2023-04-07T07:25:07.622Z,94311.16
2023-04-07T07:27:34.458Z,94325.78
2023-04-07T07:30:01.457Z,94319.06
2023-04-07T07:32:28.358Z,94329.63
2023-04-07T07:34:55.244Z,94321.28
2023-04-07T07:37:22.087Z,94313.50
2023-04-07T07:39:48.921Z,94307.78
2023-04-07T07:42:15.830Z,94315.34
2023-04-07T07:44:42.711Z,94316.41
2023-04-07T07:47:09.571Z,94321.16
2023-04-07T07:49:36.550Z,94322.97
2023-04-07T07:52:03.867Z,94323.84
2023-04-07T07:54:30.964Z,94316.44
2023-04-07T07:56:57.824Z,94330.69
2023-04-07T07:59:24.655Z,94328.94
2023-04-07T08:01:51.701Z,94331.38
2023-04-07T08:04:18.679Z,94323.88
2023-04-07T08:06:45.761Z,94320.78
2023-04-07T08:09:12.588Z,94321.44
2023-04-07T08:11:39.418Z,94311.25
2023-04-07T08:14:08.087Z,94324.81
2023-04-07T08:16:36.537Z,94324.63
2023-04-07T08:19:03.452Z,94315.16
2023-04-07T08:21:31.909Z,94330.19
2023-04-07T08:23:58.852Z,94337.97
2023-04-07T08:26:25.989Z,94331.69
2023-04-07T08:28:53.815Z,94332.25
2023-04-07T08:31:31.011Z,94330.53
2023-04-07T08:33:59.074Z,94322.53
2023-04-07T08:36:28.218Z,94327.22
2023-04-07T08:38:55.175Z,94330.44
2023-04-07T08:41:34.272Z,94328.69
2023-04-07T08:44:01.774Z,94318.09
2023-04-07T08:46:29.969Z,94326.88
2023-04-07T08:48:58.318Z,94314.84
2023-04-07T08:51:31.915Z,94314.72
2023-04-07T08:54:08.633Z,94307.81
2023-04-07T08:56:38.601Z,94311.31
2023-04-07T08:59:07.528Z,94313.88
2023-04-07T09:01:37.041Z,94318.13
2023-04-07T09:04:05.861Z,94320.34
2023-04-07T09:06:33.255Z,94301.28
2023-04-07T09:09:01.730Z,94314.19
2023-04-07T09:11:30.148Z,94307.84
2023-04-07T09:13:57.562Z,94314.00
2023-04-07T09:16:24.736Z,94312.19
2023-04-07T09:18:53.470Z,94308.38
2023-04-07T09:21:20.507Z,94302.47
2023-04-07T09:23:48.155Z,94301.19
2023-04-07T09:26:18.170Z,94312.16
2023-04-07T09:28:46.957Z,94302.00
2023-04-07T09:31:14.214Z,94309.81
2023-04-07T09:33:41.224Z,94312.91
2023-04-07T09:36:08.213Z,94309.47
2023-04-07T09:38:40.240Z,94306.47
2023-04-07T09:41:12.211Z,94312.56
2023-04-07T09:43:42.515Z,94299.38
2023-04-07T09:46:09.286Z,94313.63
2023-04-07T09:48:36.146Z,94308.25
2023-04-07T09:51:18.129Z,94309.91
2023-04-07T09:53:50.702Z,94311.91
2023-04-07T09:56:22.559Z,94309.78
2023-04-07T09:58:52.039Z,94304.22
2023-04-07T10:01:20.798Z,94304.94
2023-04-07T10:03:49.419Z,94292.06
2023-04-07T10:06:17.004Z,94292.53
2023-04-07T10:08:44.435Z,94302.16
2023-04-07T10:11:11.688Z,94310.25
2023-04-07T10:13:41.590Z,94307.00
2023-04-07T10:16:08.804Z,94301.63
2023-04-07T10:18:37.264Z,94297.16
2023-04-07T10:21:08.175Z,94300.56
2023-04-07T10:23:50.663Z,94306.63
2023-04-07T10:26:20.508Z,94291.88
2023-04-07T10:28:52.263Z,94297.53
2023-04-07T10:31:20.634Z,94308.81
2023-04-07T10:33:53.508Z,94312.63
2023-04-07T10:36:21.694Z,94316.16
2023-04-07T10:39:07.247Z,94310.19
2023-04-07T10:41:42.051Z,94308.97
2023-04-07T10:44:12.263Z,94305.44
2023-04-07T10:46:52.329Z,94315.06
2023-04-07T10:49:19.392Z,94316.72
2023-04-07T10:52:12.286Z,94310.09
2023-04-07T10:54:40.675Z,94296.34
2023-04-07T10:57:12.055Z,94312.25
2023-04-07T11:00:12.226Z,94317.16
2023-04-07T11:02:41.178Z,94329.53
2023-04-07T11:05:09.166Z,94324.91
2023-04-07T11:07:51.837Z,94327.25
2023-04-07T11:10:19.679Z,94321.25
2023-04-07T11:12:59.817Z,94328.88
2023-04-07T11:15:27.289Z,94314.63
2023-04-07T11:18:17.365Z,94308.25
2023-04-07T11:20:56.622Z,94324.47
2023-04-07T11:23:25.656Z,94314.75
2023-04-07T11:26:03.315Z,94322.72
2023-04-07T11:28:31.608Z,94322.47
2023-04-07T11:31:00.422Z,94324.91
2023-04-07T11:33:29.972Z,94327.72
2023-04-07T11:35:59.303Z,94323.53
2023-04-07T11:38:28.725Z,94325.00
2023-04-07T11:40:57.267Z,94324.88
2023-04-07T11:43:27.836Z,94330.94
2023-04-07T11:46:12.600Z,94328.28
2023-04-07T11:48:42.542Z,94329.56
2023-04-07T11:51:28.186Z,94334.09
2023-04-07T11:53:56.617Z,94333.72
2023-04-07T11:56:23.618Z,94338.16
2023-04-07T11:58:53.494Z,94348.84
2023-04-07T12:01:21.632Z,94347.97
2023-04-07T12:04:03.383Z,94348.31
2023-04-07T12:06:39.226Z,94352.13
2023-04-07T12:09:06.552Z,94342.19
2023-04-07T12:11:34.783Z,94357.44
2023-04-07T12:14:05.181Z,94358.91
2023-04-07T12:16:32.320Z,94359.97
2023-04-07T12:18:59.249Z,94359.88
2023-04-07T12:21:26.907Z,94365.41
2023-04-07T12:23:53.761Z,94367.03
2023-04-07T12:26:23.353Z,94364.59
2023-04-07T12:28:50.450Z,94367.13
2023-04-07T12:31:17.424Z,94372.84
2023-04-07T12:33:44.389Z,94367.81
2023-04-07T12:36:11.381Z,94377.84
2023-04-07T12:38:38.332Z,94385.53
2023-04-07T12:41:05.468Z,94383.50
2023-04-07T12:43:32.517Z,94387.41
2023-04-07T12:45:59.389Z,94381.81
2023-04-07T12:48:27.697Z,94376.75
2023-04-07T12:50:55.169Z,94376.22
2023-04-07T12:53:23.026Z,94374.19
2023-04-07T12:55:50.633Z,94370.22
2023-04-07T12:58:17.673Z,94373.47
2023-04-07T13:00:44.754Z,94366.56
2023-04-07T13:03:11.717Z,94361.31
2023-04-07T13:05:38.979Z,94365.72
2023-04-07T13:08:07.094Z,94363.00
2023-04-07T13:10:34.431Z,94350.19
2023-04-07T13:13:01.278Z,94348.88
2023-04-07T13:15:29.016Z,94358.72
2023-04-07T13:17:56.153Z,94358.38
2023-04-07T13:20:23.275Z,94353.94
2023-04-07T13:23:02.948Z,94357.41
2023-04-07T13:25:34.248Z,94376.41
2023-04-07T13:28:02.144Z,94379.41
2023-04-07T13:30:29.021Z,94373.50
2023-04-07T13:32:55.959Z,94370.50
2023-04-07T13:35:23.039Z,94375.44
2023-04-07T13:37:50.605Z,94386.06
2023-04-07T13:40:17.570Z,94390.25
2023-04-07T13:42:44.503Z,94387.16
2023-04-07T13:45:11.578Z,94382.88
2023-04-07T13:47:38.767Z,94394.09
2023-04-07T13:50:06.626Z,94396.50
2023-04-07T13:52:35.655Z,94401.31
2023-04-07T13:55:04.424Z,94389.44
2023-04-07T13:57:31.937Z,94398.13
2023-04-07T13:59:59.150Z,94404.56
2023-04-07T14:02:29.956Z,94413.69
2023-04-07T14:04:58.415Z,94409.13
2023-04-07T14:07:25.275Z,94402.50
2023-04-07T14:09:52.138Z,94399.75
2023-04-07T14:12:21.522Z,94400.50
2023-04-07T14:14:52.340Z,94404.88
2023-04-07T14:17:19.245Z,94410.25
2023-04-07T14:19:46.747Z,94398.94
2023-04-07T14:22:15.220Z,94406.28
2023-04-07T14:24:42.074Z,94400.97
2023-04-07T14:27:08.911Z,94398.81
2023-04-07T14:29:35.789Z,94402.75
2023-04-07T14:32:02.889Z,94401.66
2023-04-07T14:34:29.706Z,94399.53
2023-04-07T14:36:58.985Z,94401.28
2023-04-07T14:39:25.912Z,94401.19
2023-04-07T14:41:54.264Z,94404.88
2023-04-07T14:44:21.485Z,94406.69
2023-04-07T14:46:48.942Z,94401.59
2023-04-07T14:49:16.180Z,94404.34
2023-04-07T14:51:43.079Z,94403.69
2023-04-07T14:54:09.969Z,94404.56
2023-04-07T14:56:36.819Z,94397.69
2023-04-07T14:59:03.677Z,94401.81
2023-04-07T15:01:31.703Z,94405.56
2023-04-07T15:04:01.093Z,94412.66
2023-04-07T15:06:28.283Z,94400.72
2023-04-07T15:08:55.407Z,94398.41
2023-04-07T15:11:22.236Z,94402.19
2023-04-07T15:13:49.579Z,94407.28
2023-04-07T15:16:16.915Z,94409.25
2023-04-07T15:18:47.368Z,94412.88
2023-04-07T15:21:15.641Z,94413.84
2023-04-07T15:23:42.556Z,94407.31
2023-04-07T15:26:10.578Z,94423.19
2023-04-07T15:28:38.402Z,94433.16
2023-04-07T15:31:10.212Z,94422.38
2023-04-07T15:33:39.035Z,94434.50
2023-04-07T15:36:08.554Z,94434.66
2023-04-07T15:38:36.008Z,94443.66
2023-04-07T15:41:02.882Z,94438.41
2023-04-07T15:43:29.887Z,94443.50
2023-04-07T15:45:56.774Z,94452.16
2023-04-07T15:48:23.879Z,94456.88
2023-04-07T15:50:52.064Z,94451.63
2023-04-07T15:53:18.891Z,94446.22
2023-04-07T15:55:45.778Z,94460.28
2023-04-07T15:58:12.628Z,94458.97
2023-04-07T16:00:40.288Z,94463.22
2023-04-07T16:03:07.320Z,94466.66
2023-04-07T16:05:34.442Z,94460.63
2023-04-07T16:08:01.305Z,94476.59
2023-04-07T16:10:28.147Z,94477.56
2023-04-07T16:12:55.663Z,94472.53
2023-04-07T16:15:38.723Z,94468.41
2023-04-07T16:18:09.233Z,94482.50
2023-04-07T16:20:36.439Z,94480.84
2023-04-07T16:23:03.272Z,94474.13
2023-04-07T16:25:30.506Z,94483.94
2023-04-07T16:27:57.410Z,94482.78
2023-04-07T16:30:25.483Z,94489.16
2023-04-07T16:32:52.500Z,94490.66
2023-04-07T16:35:19.456Z,94495.88
2023-04-07T16:37:46.759Z,94495.81
2023-04-07T16:40:14.110Z,94491.19
2023-04-07T16:42:41.052Z,94499.34
2023-04-07T16:45:08.695Z,94500.03
2023-04-07T16:47:35.870Z,94512.66
2023-04-07T16:50:04.291Z,94507.06
2023-04-07T16:52:31.962Z,94501.81
2023-04-07T16:54:59.526Z,94510.44
2023-04-07T16:57:26.408Z,94501.25
2023-04-07T16:59:53.367Z,94506.50
2023-04-07T17:02:20.380Z,94511.75
2023-04-07T17:04:47.390Z,94506.06
2023-04-07T17:07:14.249Z,94512.09
2023-04-07T17:09:41.106Z,94507.88
2023-04-07T17:12:08.064Z,94518.19
2023-04-07T17:14:35.061Z,94510.63
2023-04-07T17:17:02.343Z,94517.50
2023-04-07T17:19:29.492Z,94518.72
2023-04-07T17:21:56.663Z,94525.41
2023-04-07T17:24:23.895Z,94515.75
2023-04-07T17:26:51.034Z,94516.44
2023-04-07T17:29:17.919Z,94529.53
2023-04-07T17:31:49.718Z,94521.63
2023-04-07T17:34:16.715Z,94522.91
2023-04-07T17:36:43.517Z,94522.84
2023-04-07T17:39:10.531Z,94532.16
2023-04-07T17:41:38.662Z,94535.22
2023-04-07T17:44:05.998Z,94534.75
2023-04-07T17:46:32.993Z,94541.34
2023-04-07T17:49:00.012Z,94543.66
2023-04-07T17:51:27.790Z,94544.34
2023-04-07T17:53:54.948Z,94543.13
2023-04-07T17:56:21.884Z,94564.88
2023-04-07T17:58:48.918Z,94561.31
2023-04-07T18:01:17.077Z,94556.59
2023-04-07T18:03:44.318Z,94558.09
2023-04-07T18:06:16.875Z,94565.41
2023-04-07T18:08:47.503Z,94572.31
2023-04-07T18:11:15.137Z,94562.44
2023-04-07T18:13:42.094Z,94565.72
2023-04-07T18:16:11.924Z,94568.50
2023-04-07T18:18:39.013Z,94585.53
2023-04-07T18:21:07.274Z,94581.72
2023-04-07T18:23:35.003Z,94588.09
2023-04-07T18:26:06.775Z,94589.06
2023-04-07T18:28:34.246Z,94598.56
2023-04-07T18:31:07.912Z,94599.66
2023-04-07T18:33:36.019Z,94595.34
2023-04-07T18:36:08.081Z,94600.25
2023-04-07T18:38:36.152Z,94600.88
2023-04-07T18:41:03.326Z,94609.91
2023-04-07T18:43:30.544Z,94597.75
2023-04-07T18:45:57.492Z,94613.81
2023-04-07T18:48:24.469Z,94605.06
2023-04-07T18:50:53.616Z,94614.00
2023-04-07T18:53:21.814Z,94619.91
2023-04-07T18:55:49.237Z,94626.72
2023-04-07T18:58:16.357Z,94617.53
2023-04-07T19:00:44.605Z,94635.72
2023-04-07T19:03:12.118Z,94629.63
2023-04-07T19:05:42.488Z,94624.72
2023-04-07T19:08:10.065Z,94625.53
2023-04-07T19:10:36.983Z,94622.28
2023-04-07T19:13:04.711Z,94632.16
2023-04-07T19:15:40.884Z,94619.00
2023-04-07T19:18:10.497Z,94641.00
2023-04-07T19:20:37.346Z,94632.59
2023-04-07T19:23:04.164Z,94639.34
2023-04-07T19:25:31.523Z,94637.97
2023-04-07T19:27:59.011Z,94649.44
2023-04-07T19:30:26.082Z,94650.28
2023-04-07T19:32:53.472Z,94654.63
2023-04-07T19:35:20.634Z,94653.50
2023-04-07T19:37:48.261Z,94656.00
2023-04-07T19:40:15.461Z,94659.19
2023-04-07T19:42:42.716Z,94655.16
2023-04-07T19:45:10.468Z,94655.94
2023-04-07T19:47:38.724Z,94660.72
2023-04-07T19:50:06.963Z,94661.84
2023-04-07T19:52:33.934Z,94662.00
2023-04-07T19:55:02.937Z,94671.19
2023-04-07T19:57:31.341Z,94667.63
2023-04-07T19:59:58.420Z,94663.31
2023-04-07T20:02:25.518Z,94676.13
2023-04-07T20:04:53.972Z,94675.91
2023-04-07T20:07:22.960Z,94668.38
2023-04-07T20:09:54.191Z,94677.22
2023-04-07T20:12:21.540Z,94677.94
2023-04-07T20:14:48.442Z,94673.47
2023-04-07T20:17:15.585Z,94675.75
2023-04-07T20:19:42.503Z,94681.44
2023-04-07T20:22:09.553Z,94677.59
2023-04-07T20:24:36.690Z,94682.84
2023-04-07T20:27:03.749Z,94693.53
2023-04-07T20:29:30.672Z,94696.31
2023-04-07T20:31:57.536Z,94690.66
2023-04-07T20:34:24.447Z,94680.94
2023-04-07T20:36:51.334Z,94683.28
2023-04-07T20:39:18.151Z,94683.09
2023-04-07T20:41:45.789Z,94690.25
2023-04-07T20:44:12.632Z,94692.34
2023-04-07T20:46:39.469Z,94687.81
2023-04-07T20:49:08.117Z,94701.00
2023-04-07T20:51:38.626Z,94697.81
2023-04-07T20:54:05.485Z,94692.72
2023-04-07T20:56:32.322Z,94703.19
2023-04-07T20:58:59.372Z,94688.91
2023-04-07T21:01:29.361Z,94693.06
2023-04-07T21:03:56.422Z,94707.19
2023-04-07T21:06:23.410Z,94703.47
2023-04-07T21:08:50.427Z,94705.53
2023-04-07T21:11:17.367Z,94702.13
2023-04-07T21:13:44.179Z,94692.47
2023-04-07T21:16:11.418Z,94699.75
2023-04-07T21:18:38.416Z,94700.19
2023-04-07T21:21:05.626Z,94696.88
2023-04-07T21:23:32.512Z,94701.94
2023-04-07T21:26:03.554Z,94694.97
2023-04-07T21:28:30.519Z,94699.50
2023-04-07T21:30:58.421Z,94686.41
2023-04-07T21:33:25.496Z,94691.09
2023-04-07T21:35:52.619Z,94688.84
2023-04-07T21:38:19.503Z,94688.16
2023-04-07T21:40:46.486Z,94691.91
2023-04-07T21:43:13.393Z,94684.19
2023-04-07T21:45:40.651Z,94692.16
2023-04-07T21:48:08.073Z,94686.81
2023-04-07T21:50:35.205Z,94690.78
2023-04-07T21:53:02.082Z,94692.03
2023-04-07T21:55:29.005Z,94688.06
2023-04-07T21:57:55.936Z,94692.91
2023-04-07T22:00:22.870Z,94690.44
2023-04-07T22:02:50.012Z,94694.97
2023-04-07T22:05:17.762Z,94704.28
2023-04-07T22:07:45.831Z,94685.22
2023-04-07T22:10:13.194Z,94705.13
2023-04-07T22:12:40.612Z,94693.59
2023-04-07T22:15:09.451Z,94692.78
2023-04-07T22:17:36.477Z,94701.97
2023-04-07T22:20:04.305Z,94689.44
2023-04-07T22:22:31.216Z,94696.22
2023-04-07T22:24:58.056Z,94688.94
2023-04-07T22:27:24.975Z,94693.31
2023-04-07T22:29:51.802Z,94688.66
2023-04-07T22:32:18.640Z,94689.88
2023-04-07T22:34:46.697Z,94699.38
2023-04-07T22:37:13.763Z,94696.06
2023-04-07T22:39:40.789Z,94701.84
2023-04-07T22:42:07.678Z,94690.84
2023-04-07T22:44:34.494Z,94693.06
2023-04-07T22:47:01.405Z,94694.84
2023-04-07T22:49:30.814Z,94702.69
2023-04-07T22:51:57.667Z,94697.97
2023-04-07T22:54:24.576Z,94696.47
2023-04-07T22:56:51.471Z,94687.25
2023-04-07T22:59:18.298Z,94694.16
2023-04-07T23:01:45.301Z,94692.47
2023-04-07T23:04:12.332Z,94697.47
2023-04-07T23:06:40.799Z,94696.78
2023-04-07T23:09:07.873Z,94694.66
2023-04-07T23:11:34.672Z,94697.16
2023-04-07T23:14:05.144Z,94700.31
2023-04-07T23:16:33.967Z,94701.81
2023-04-07T23:19:01.458Z,94708.81
2023-04-07T23:21:30.144Z,94700.75
2023-04-07T23:23:58.302Z,94700.75
2023-04-07T23:26:25.136Z,94704.03
2023-04-07T23:28:52.225Z,94701.56
2023-04-07T23:31:19.147Z,94713.91
2023-04-07T23:33:46.905Z,94705.81
2023-04-07T23:36:14.118Z,94720.78
2023-04-07T23:38:41.773Z,94715.53
2023-04-07T23:41:08.836Z,94709.47
2023-04-07T23:43:35.901Z,94713.22
2023-04-07T23:46:03.102Z,94717.31
2023-04-07T23:48:31.273Z,94719.66
2023-04-07T23:51:00.154Z,94722.69
2023-04-07T23:53:27.154Z,94722.69
2023-04-07T23:55:54.278Z,94715.00
2023-04-07T23:58:21.323Z,94721.47
